sensor_id;sensor_type;location;lat;lon;timestamp;P1;durP1;ratioP1;P2;durP2;ratioP2
62861;SDS011;48953;53.110;5.592;2023-07-22T00:01:12;1.90;;;0.75;;
62861;SDS011;48953;53.110;5.592;2023-07-22T00:03:38;1.25;;;0.90;;
62861;SDS011;48953;53.110;5.592;2023-07-22T00:06:08;2.30;;;0.93;;
62861;SDS011;48953;53.110;5.592;2023-07-22T00:11:00;1.70;;;0.93;;
62861;SDS011;48953;53.110;5.592;2023-07-22T00:13:26;1.08;;;0.82;;
62861;SDS011;48953;53.110;5.592;2023-07-22T00:15:53;1.67;;;1.33;;
62861;SDS011;48953;53.110;5.592;2023-07-22T00:18:19;2.75;;;1.25;;
62861;SDS011;48953;53.110;5.592;2023-07-22T00:20:45;1.85;;;1.00;;
62861;SDS011;48953;53.110;5.592;2023-07-22T00:23:11;4.07;;;1.35;;
62861;SDS011;48953;53.110;5.592;2023-07-22T00:25:37;1.58;;;1.10;;
62861;SDS011;48953;53.110;5.592;2023-07-22T00:28:03;2.42;;;1.00;;
62861;SDS011;48953;53.110;5.592;2023-07-22T00:30:29;2.45;;;1.10;;
62861;SDS011;48953;53.110;5.592;2023-07-22T00:32:55;4.88;;;1.13;;
62861;SDS011;48953;53.110;5.592;2023-07-22T00:35:21;2.72;;;1.48;;
62861;SDS011;48953;53.110;5.592;2023-07-22T00:37:47;3.30;;;1.13;;
62861;SDS011;48953;53.110;5.592;2023-07-22T00:40:13;2.65;;;1.17;;
62861;SDS011;48953;53.110;5.592;2023-07-22T00:42:40;4.38;;;1.30;;
62861;SDS011;48953;53.110;5.592;2023-07-22T00:45:07;3.72;;;1.17;;
62861;SDS011;48953;53.110;5.592;2023-07-22T00:47:33;2.92;;;1.38;;
62861;SDS011;48953;53.110;5.592;2023-07-22T00:50:02;3.45;;;1.63;;
62861;SDS011;48953;53.110;5.592;2023-07-22T00:52:28;4.00;;;1.60;;
62861;SDS011;48953;53.110;5.592;2023-07-22T00:54:54;2.03;;;1.23;;
62861;SDS011;48953;53.110;5.592;2023-07-22T00:57:20;3.33;;;1.52;;
62861;SDS011;48953;53.110;5.592;2023-07-22T00:59:46;4.68;;;1.75;;
62861;SDS011;48953;53.110;5.592;2023-07-22T01:02:12;4.05;;;1.60;;
62861;SDS011;48953;53.110;5.592;2023-07-22T01:04:38;3.75;;;1.70;;
62861;SDS011;48953;53.110;5.592;2023-07-22T01:07:05;4.38;;;1.40;;
62861;SDS011;48953;53.110;5.592;2023-07-22T01:09:37;3.75;;;1.80;;
62861;SDS011;48953;53.110;5.592;2023-07-22T01:12:04;5.68;;;2.53;;
62861;SDS011;48953;53.110;5.592;2023-07-22T01:14:34;5.40;;;2.17;;
62861;SDS011;48953;53.110;5.592;2023-07-22T01:17:04;6.15;;;1.83;;
62861;SDS011;48953;53.110;5.592;2023-07-22T01:19:30;3.70;;;1.73;;
62861;SDS011;48953;53.110;5.592;2023-07-22T01:21:57;4.90;;;1.80;;
62861;SDS011;48953;53.110;5.592;2023-07-22T01:24:23;3.75;;;1.70;;
62861;SDS011;48953;53.110;5.592;2023-07-22T01:26:49;2.97;;;1.83;;
62861;SDS011;48953;53.110;5.592;2023-07-22T01:29:15;4.00;;;1.70;;
62861;SDS011;48953;53.110;5.592;2023-07-22T01:31:41;2.33;;;1.50;;
62861;SDS011;48953;53.110;5.592;2023-07-22T01:34:07;4.15;;;1.80;;
62861;SDS011;48953;53.110;5.592;2023-07-22T01:36:33;3.60;;;1.77;;
62861;SDS011;48953;53.110;5.592;2023-07-22T01:38:59;3.13;;;2.05;;
62861;SDS011;48953;53.110;5.592;2023-07-22T01:41:25;4.40;;;1.92;;
62861;SDS011;48953;53.110;5.592;2023-07-22T01:43:53;3.35;;;2.13;;
62861;SDS011;48953;53.110;5.592;2023-07-22T01:46:20;5.35;;;2.25;;
62861;SDS011;48953;53.110;5.592;2023-07-22T01:48:46;3.67;;;2.08;;
62861;SDS011;48953;53.110;5.592;2023-07-22T01:51:12;7.82;;;2.50;;
62861;SDS011;48953;53.110;5.592;2023-07-22T01:53:38;4.45;;;2.05;;
62861;SDS011;48953;53.110;5.592;2023-07-22T01:56:04;7.00;;;2.72;;
62861;SDS011;48953;53.110;5.592;2023-07-22T01:58:30;4.70;;;2.67;;
62861;SDS011;48953;53.110;5.592;2023-07-22T02:00:56;4.97;;;2.42;;
62861;SDS011;48953;53.110;5.592;2023-07-22T02:03:22;5.45;;;2.50;;
62861;SDS011;48953;53.110;5.592;2023-07-22T02:05:48;7.97;;;2.83;;
62861;SDS011;48953;53.110;5.592;2023-07-22T02:08:14;7.15;;;2.65;;
62861;SDS011;48953;53.110;5.592;2023-07-22T02:10:40;8.00;;;2.67;;
62861;SDS011;48953;53.110;5.592;2023-07-22T02:13:06;5.13;;;2.30;;
62861;SDS011;48953;53.110;5.592;2023-07-22T02:15:32;5.68;;;2.50;;
62861;SDS011;48953;53.110;5.592;2023-07-22T02:17:59;5.85;;;2.33;;
62861;SDS011;48953;53.110;5.592;2023-07-22T02:20:25;5.63;;;2.65;;
62861;SDS011;48953;53.110;5.592;2023-07-22T02:22:54;6.13;;;2.55;;
62861;SDS011;48953;53.110;5.592;2023-07-22T02:25:27;5.63;;;2.80;;
62861;SDS011;48953;53.110;5.592;2023-07-22T02:27:53;4.07;;;2.55;;
62861;SDS011;48953;53.110;5.592;2023-07-22T02:30:19;5.25;;;2.72;;
62861;SDS011;48953;53.110;5.592;2023-07-22T02:32:45;10.07;;;3.05;;
62861;SDS011;48953;53.110;5.592;2023-07-22T02:35:11;8.07;;;2.95;;
62861;SDS011;48953;53.110;5.592;2023-07-22T02:37:38;7.30;;;3.10;;
62861;SDS011;48953;53.110;5.592;2023-07-22T02:40:04;5.18;;;2.72;;
62861;SDS011;48953;53.110;5.592;2023-07-22T02:42:36;8.93;;;3.00;;
62861;SDS011;48953;53.110;5.592;2023-07-22T02:45:02;7.70;;;3.42;;
62861;SDS011;48953;53.110;5.592;2023-07-22T02:47:34;8.13;;;3.35;;
62861;SDS011;48953;53.110;5.592;2023-07-22T02:50:01;8.55;;;3.53;;
62861;SDS011;48953;53.110;5.592;2023-07-22T02:52:28;6.82;;;3.30;;
62861;SDS011;48953;53.110;5.592;2023-07-22T02:57:30;8.35;;;3.40;;
62861;SDS011;48953;53.110;5.592;2023-07-22T02:59:56;8.40;;;3.10;;
62861;SDS011;48953;53.110;5.592;2023-07-22T03:02:22;11.15;;;3.58;;
62861;SDS011;48953;53.110;5.592;2023-07-22T03:04:48;7.68;;;3.42;;
62861;SDS011;48953;53.110;5.592;2023-07-22T03:07:15;8.27;;;3.47;;
62861;SDS011;48953;53.110;5.592;2023-07-22T03:09:41;7.55;;;3.70;;
62861;SDS011;48953;53.110;5.592;2023-07-22T03:12:07;7.78;;;3.65;;
62861;SDS011;48953;53.110;5.592;2023-07-22T03:14:33;8.27;;;3.53;;
62861;SDS011;48953;53.110;5.592;2023-07-22T03:17:02;9.38;;;4.47;;
62861;SDS011;48953;53.110;5.592;2023-07-22T03:19:31;9.10;;;3.55;;
62861;SDS011;48953;53.110;5.592;2023-07-22T03:21:57;9.55;;;3.90;;
62861;SDS011;48953;53.110;5.592;2023-07-22T03:24:23;8.68;;;3.70;;
62861;SDS011;48953;53.110;5.592;2023-07-22T03:26:50;10.10;;;4.72;;
62861;SDS011;48953;53.110;5.592;2023-07-22T03:29:16;9.13;;;4.75;;
62861;SDS011;48953;53.110;5.592;2023-07-22T03:31:42;10.52;;;4.65;;
62861;SDS011;48953;53.110;5.592;2023-07-22T03:34:08;10.70;;;5.07;;
62861;SDS011;48953;53.110;5.592;2023-07-22T03:36:34;12.65;;;5.53;;
62861;SDS011;48953;53.110;5.592;2023-07-22T03:39:00;12.82;;;5.28;;
62861;SDS011;48953;53.110;5.592;2023-07-22T03:41:26;13.88;;;5.97;;
62861;SDS011;48953;53.110;5.592;2023-07-22T03:43:52;13.52;;;6.18;;
62861;SDS011;48953;53.110;5.592;2023-07-22T03:46:18;14.15;;;6.43;;
62861;SDS011;48953;53.110;5.592;2023-07-22T03:48:44;14.70;;;6.40;;
62861;SDS011;48953;53.110;5.592;2023-07-22T03:51:10;14.93;;;6.50;;
62861;SDS011;48953;53.110;5.592;2023-07-22T03:53:36;15.15;;;6.65;;
62861;SDS011;48953;53.110;5.592;2023-07-22T03:56:02;13.40;;;6.07;;
62861;SDS011;48953;53.110;5.592;2023-07-22T03:58:28;13.13;;;5.95;;
62861;SDS011;48953;53.110;5.592;2023-07-22T04:00:54;18.35;;;6.80;;
62861;SDS011;48953;53.110;5.592;2023-07-22T04:03:20;18.70;;;6.90;;
62861;SDS011;48953;53.110;5.592;2023-07-22T04:05:55;14.43;;;7.03;;
62861;SDS011;48953;53.110;5.592;2023-07-22T04:08:21;14.18;;;6.43;;
62861;SDS011;48953;53.110;5.592;2023-07-22T04:11:05;14.05;;;6.95;;
62861;SDS011;48953;53.110;5.592;2023-07-22T04:13:31;13.23;;;6.90;;
62861;SDS011;48953;53.110;5.592;2023-07-22T04:15:57;12.98;;;6.43;;
62861;SDS011;48953;53.110;5.592;2023-07-22T04:18:23;12.48;;;6.55;;
62861;SDS011;48953;53.110;5.592;2023-07-22T04:20:54;13.25;;;6.55;;
62861;SDS011;48953;53.110;5.592;2023-07-22T04:23:22;14.25;;;6.82;;
62861;SDS011;48953;53.110;5.592;2023-07-22T04:25:48;12.82;;;6.40;;
62861;SDS011;48953;53.110;5.592;2023-07-22T04:28:14;13.52;;;6.63;;
62861;SDS011;48953;53.110;5.592;2023-07-22T04:30:40;12.30;;;6.13;;
62861;SDS011;48953;53.110;5.592;2023-07-22T04:33:06;14.38;;;6.25;;
62861;SDS011;48953;53.110;5.592;2023-07-22T04:35:37;12.55;;;5.85;;
62861;SDS011;48953;53.110;5.592;2023-07-22T04:38:03;11.77;;;5.95;;
62861;SDS011;48953;53.110;5.592;2023-07-22T04:40:30;12.20;;;6.18;;
62861;SDS011;48953;53.110;5.592;2023-07-22T04:42:56;10.85;;;5.85;;
62861;SDS011;48953;53.110;5.592;2023-07-22T04:45:23;13.90;;;5.90;;
62861;SDS011;48953;53.110;5.592;2023-07-22T04:47:52;11.10;;;5.47;;
62861;SDS011;48953;53.110;5.592;2023-07-22T04:50:18;10.98;;;5.35;;
62861;SDS011;48953;53.110;5.592;2023-07-22T04:52:45;12.55;;;5.65;;
62861;SDS011;48953;53.110;5.592;2023-07-22T04:55:11;12.10;;;5.57;;
62861;SDS011;48953;53.110;5.592;2023-07-22T04:57:38;10.15;;;5.28;;
62861;SDS011;48953;53.110;5.592;2023-07-22T05:00:06;10.75;;;5.68;;
62861;SDS011;48953;53.110;5.592;2023-07-22T05:02:34;11.82;;;5.65;;
62861;SDS011;48953;53.110;5.592;2023-07-22T05:05:00;9.07;;;5.03;;
62861;SDS011;48953;53.110;5.592;2023-07-22T05:07:27;11.23;;;5.07;;
62861;SDS011;48953;53.110;5.592;2023-07-22T05:09:53;10.48;;;5.82;;
62861;SDS011;48953;53.110;5.592;2023-07-22T05:12:19;10.70;;;5.60;;
62861;SDS011;48953;53.110;5.592;2023-07-22T05:14:45;11.38;;;5.57;;
62861;SDS011;48953;53.110;5.592;2023-07-22T05:17:11;10.40;;;5.28;;
62861;SDS011;48953;53.110;5.592;2023-07-22T05:19:37;9.25;;;5.25;;
62861;SDS011;48953;53.110;5.592;2023-07-22T05:22:03;8.85;;;5.47;;
62861;SDS011;48953;53.110;5.592;2023-07-22T05:24:29;9.38;;;5.13;;
62861;SDS011;48953;53.110;5.592;2023-07-22T05:26:55;9.40;;;5.47;;
62861;SDS011;48953;53.110;5.592;2023-07-22T05:29:22;12.32;;;5.13;;
62861;SDS011;48953;53.110;5.592;2023-07-22T05:31:48;8.75;;;4.85;;
62861;SDS011;48953;53.110;5.592;2023-07-22T05:34:14;8.68;;;5.53;;
62861;SDS011;48953;53.110;5.592;2023-07-22T05:36:40;9.90;;;5.63;;
62861;SDS011;48953;53.110;5.592;2023-07-22T05:39:06;10.85;;;5.93;;
62861;SDS011;48953;53.110;5.592;2023-07-22T05:41:33;10.55;;;6.05;;
62861;SDS011;48953;53.110;5.592;2023-07-22T05:43:59;11.23;;;6.35;;
62861;SDS011;48953;53.110;5.592;2023-07-22T05:46:25;12.35;;;6.35;;
62861;SDS011;48953;53.110;5.592;2023-07-22T05:48:51;10.68;;;7.05;;
62861;SDS011;48953;53.110;5.592;2023-07-22T05:51:18;10.98;;;5.85;;
62861;SDS011;48953;53.110;5.592;2023-07-22T05:53:44;11.75;;;6.03;;
62861;SDS011;48953;53.110;5.592;2023-07-22T05:56:10;15.05;;;6.43;;
62861;SDS011;48953;53.110;5.592;2023-07-22T05:58:36;10.80;;;6.15;;
62861;SDS011;48953;53.110;5.592;2023-07-22T06:01:02;12.23;;;6.90;;
62861;SDS011;48953;53.110;5.592;2023-07-22T06:03:28;14.13;;;7.70;;
62861;SDS011;48953;53.110;5.592;2023-07-22T06:05:54;13.23;;;7.00;;
62861;SDS011;48953;53.110;5.592;2023-07-22T06:08:20;12.50;;;7.18;;
62861;SDS011;48953;53.110;5.592;2023-07-22T06:10:46;11.88;;;7.03;;
62861;SDS011;48953;53.110;5.592;2023-07-22T06:13:12;12.30;;;6.82;;
62861;SDS011;48953;53.110;5.592;2023-07-22T06:15:38;12.80;;;7.65;;
62861;SDS011;48953;53.110;5.592;2023-07-22T06:18:05;13.15;;;7.30;;
62861;SDS011;48953;53.110;5.592;2023-07-22T06:20:34;12.83;;;7.40;;
62861;SDS011;48953;53.110;5.592;2023-07-22T06:23:01;13.68;;;7.18;;
62861;SDS011;48953;53.110;5.592;2023-07-22T06:25:27;11.98;;;6.88;;
62861;SDS011;48953;53.110;5.592;2023-07-22T06:27:53;12.23;;;6.85;;
62861;SDS011;48953;53.110;5.592;2023-07-22T06:30:19;13.82;;;7.20;;
62861;SDS011;48953;53.110;5.592;2023-07-22T06:32:45;12.98;;;7.20;;
62861;SDS011;48953;53.110;5.592;2023-07-22T06:35:11;13.27;;;7.57;;
62861;SDS011;48953;53.110;5.592;2023-07-22T06:37:37;14.05;;;7.45;;
62861;SDS011;48953;53.110;5.592;2023-07-22T06:40:05;13.88;;;7.38;;
62861;SDS011;48953;53.110;5.592;2023-07-22T06:42:32;12.88;;;7.47;;
62861;SDS011;48953;53.110;5.592;2023-07-22T06:44:58;11.07;;;6.20;;
62861;SDS011;48953;53.110;5.592;2023-07-22T06:47:24;9.75;;;6.80;;
62861;SDS011;48953;53.110;5.592;2023-07-22T06:49:50;9.18;;;6.25;;
62861;SDS011;48953;53.110;5.592;2023-07-22T06:52:16;10.57;;;5.70;;
62861;SDS011;48953;53.110;5.592;2023-07-22T06:54:42;8.68;;;5.70;;
62861;SDS011;48953;53.110;5.592;2023-07-22T06:57:08;11.40;;;6.20;;
62861;SDS011;48953;53.110;5.592;2023-07-22T06:59:34;10.30;;;6.15;;
62861;SDS011;48953;53.110;5.592;2023-07-22T07:02:01;9.50;;;6.15;;
62861;SDS011;48953;53.110;5.592;2023-07-22T07:04:27;9.20;;;6.07;;
62861;SDS011;48953;53.110;5.592;2023-07-22T07:06:53;10.65;;;5.65;;
62861;SDS011;48953;53.110;5.592;2023-07-22T07:09:19;10.20;;;5.80;;
62861;SDS011;48953;53.110;5.592;2023-07-22T07:11:45;10.15;;;5.75;;
62861;SDS011;48953;53.110;5.592;2023-07-22T07:14:11;9.15;;;5.28;;
62861;SDS011;48953;53.110;5.592;2023-07-22T07:16:37;8.75;;;5.15;;
62861;SDS011;48953;53.110;5.592;2023-07-22T07:19:04;8.90;;;4.88;;
62861;SDS011;48953;53.110;5.592;2023-07-22T07:21:30;6.60;;;4.43;;
62861;SDS011;48953;53.110;5.592;2023-07-22T07:23:57;6.10;;;3.60;;
62861;SDS011;48953;53.110;5.592;2023-07-22T07:26:23;6.32;;;3.80;;
62861;SDS011;48953;53.110;5.592;2023-07-22T07:28:50;5.53;;;3.50;;
62861;SDS011;48953;53.110;5.592;2023-07-22T07:31:16;5.68;;;3.50;;
62861;SDS011;48953;53.110;5.592;2023-07-22T07:33:42;4.88;;;3.15;;
62861;SDS011;48953;53.110;5.592;2023-07-22T07:36:09;7.20;;;3.78;;
62861;SDS011;48953;53.110;5.592;2023-07-22T07:38:35;5.28;;;3.15;;
62861;SDS011;48953;53.110;5.592;2023-07-22T07:41:04;5.95;;;3.30;;
62861;SDS011;48953;53.110;5.592;2023-07-22T07:43:36;4.20;;;3.00;;
62861;SDS011;48953;53.110;5.592;2023-07-22T07:48:44;6.78;;;3.20;;
62861;SDS011;48953;53.110;5.592;2023-07-22T07:51:12;7.03;;;2.90;;
62861;SDS011;48953;53.110;5.592;2023-07-22T07:53:38;4.80;;;2.90;;
62861;SDS011;48953;53.110;5.592;2023-07-22T07:56:04;4.72;;;2.90;;
62861;SDS011;48953;53.110;5.592;2023-07-22T07:58:30;3.95;;;2.85;;
62861;SDS011;48953;53.110;5.592;2023-07-22T08:00:56;3.83;;;2.63;;
62861;SDS011;48953;53.110;5.592;2023-07-22T08:03:23;5.00;;;2.70;;
62861;SDS011;48953;53.110;5.592;2023-07-22T08:05:49;4.05;;;2.42;;
62861;SDS011;48953;53.110;5.592;2023-07-22T08:08:15;4.47;;;2.70;;
62861;SDS011;48953;53.110;5.592;2023-07-22T08:10:41;5.60;;;3.28;;
62861;SDS011;48953;53.110;5.592;2023-07-22T08:13:09;7.25;;;2.83;;
62861;SDS011;48953;53.110;5.592;2023-07-22T08:15:35;3.88;;;2.60;;
62861;SDS011;48953;53.110;5.592;2023-07-22T08:18:01;3.42;;;2.38;;
62861;SDS011;48953;53.110;5.592;2023-07-22T08:20:29;4.43;;;3.17;;
62861;SDS011;48953;53.110;5.592;2023-07-22T08:23:06;4.10;;;2.58;;
62861;SDS011;48953;53.110;5.592;2023-07-22T08:25:32;3.70;;;2.60;;
62861;SDS011;48953;53.110;5.592;2023-07-22T08:27:59;4.00;;;2.78;;
62861;SDS011;48953;53.110;5.592;2023-07-22T08:30:25;17.55;;;8.77;;
62861;SDS011;48953;53.110;5.592;2023-07-22T08:32:51;29.60;;;15.15;;
62861;SDS011;48953;53.110;5.592;2023-07-22T08:35:17;25.05;;;13.73;;
62861;SDS011;48953;53.110;5.592;2023-07-22T08:37:43;26.50;;;15.25;;
62861;SDS011;48953;53.110;5.592;2023-07-22T08:40:10;16.80;;;9.43;;
62861;SDS011;48953;53.110;5.592;2023-07-22T08:42:36;11.23;;;6.60;;
62861;SDS011;48953;53.110;5.592;2023-07-22T08:45:03;7.97;;;4.75;;
62861;SDS011;48953;53.110;5.592;2023-07-22T08:47:31;10.88;;;6.20;;
62861;SDS011;48953;53.110;5.592;2023-07-22T08:49:58;11.40;;;5.90;;
62861;SDS011;48953;53.110;5.592;2023-07-22T08:52:26;7.03;;;4.32;;
62861;SDS011;48953;53.110;5.592;2023-07-22T08:54:53;7.22;;;3.92;;
62861;SDS011;48953;53.110;5.592;2023-07-22T08:57:20;5.78;;;4.30;;
62861;SDS011;48953;53.110;5.592;2023-07-22T08:59:47;6.70;;;4.20;;
62861;SDS011;48953;53.110;5.592;2023-07-22T09:02:13;7.85;;;4.80;;
62861;SDS011;48953;53.110;5.592;2023-07-22T09:04:41;5.30;;;3.90;;
62861;SDS011;48953;53.110;5.592;2023-07-22T09:07:08;5.68;;;4.32;;
62861;SDS011;48953;53.110;5.592;2023-07-22T09:09:34;6.50;;;3.75;;
62861;SDS011;48953;53.110;5.592;2023-07-22T09:12:01;4.82;;;3.60;;
62861;SDS011;48953;53.110;5.592;2023-07-22T09:14:27;5.38;;;4.03;;
62861;SDS011;48953;53.110;5.592;2023-07-22T09:16:53;4.80;;;4.13;;
62861;SDS011;48953;53.110;5.592;2023-07-22T09:19:19;4.75;;;3.67;;
62861;SDS011;48953;53.110;5.592;2023-07-22T09:21:46;7.82;;;4.20;;
62861;SDS011;48953;53.110;5.592;2023-07-22T09:24:22;5.15;;;3.75;;
62861;SDS011;48953;53.110;5.592;2023-07-22T09:26:48;4.47;;;3.83;;
62861;SDS011;48953;53.110;5.592;2023-07-22T09:29:14;5.80;;;3.92;;
62861;SDS011;48953;53.110;5.592;2023-07-22T09:31:53;4.93;;;3.75;;
62861;SDS011;48953;53.110;5.592;2023-07-22T09:34:20;6.05;;;3.45;;
62861;SDS011;48953;53.110;5.592;2023-07-22T09:39:17;4.35;;;3.22;;
62861;SDS011;48953;53.110;5.592;2023-07-22T09:41:43;3.80;;;3.00;;
62861;SDS011;48953;53.110;5.592;2023-07-22T09:44:10;3.28;;;2.83;;
62861;SDS011;48953;53.110;5.592;2023-07-22T09:46:37;5.45;;;3.42;;
62861;SDS011;48953;53.110;5.592;2023-07-22T09:49:04;4.32;;;3.15;;
62861;SDS011;48953;53.110;5.592;2023-07-22T09:51:34;4.50;;;3.20;;
62861;SDS011;48953;53.110;5.592;2023-07-22T09:54:00;5.25;;;3.85;;
62861;SDS011;48953;53.110;5.592;2023-07-22T09:56:27;4.90;;;3.25;;
62861;SDS011;48953;53.110;5.592;2023-07-22T09:58:53;5.63;;;4.10;;
62861;SDS011;48953;53.110;5.592;2023-07-22T10:01:19;5.57;;;4.20;;
62861;SDS011;48953;53.110;5.592;2023-07-22T10:03:45;6.90;;;4.22;;
62861;SDS011;48953;53.110;5.592;2023-07-22T10:06:13;6.13;;;3.92;;
62861;SDS011;48953;53.110;5.592;2023-07-22T10:08:40;5.50;;;3.45;;
62861;SDS011;48953;53.110;5.592;2023-07-22T10:11:10;6.85;;;3.88;;
62861;SDS011;48953;53.110;5.592;2023-07-22T10:13:37;4.15;;;3.45;;
62861;SDS011;48953;53.110;5.592;2023-07-22T10:16:04;4.55;;;3.42;;
62861;SDS011;48953;53.110;5.592;2023-07-22T10:18:31;4.40;;;4.00;;
62861;SDS011;48953;53.110;5.592;2023-07-22T10:20:58;4.32;;;3.67;;
62861;SDS011;48953;53.110;5.592;2023-07-22T10:23:25;6.18;;;4.05;;
62861;SDS011;48953;53.110;5.592;2023-07-22T10:25:52;5.38;;;4.30;;
62861;SDS011;48953;53.110;5.592;2023-07-22T10:28:19;4.85;;;4.10;;
62861;SDS011;48953;53.110;5.592;2023-07-22T10:30:48;5.13;;;4.07;;
62861;SDS011;48953;53.110;5.592;2023-07-22T10:33:14;5.72;;;4.05;;
62861;SDS011;48953;53.110;5.592;2023-07-22T10:35:41;5.53;;;3.97;;
62861;SDS011;48953;53.110;5.592;2023-07-22T10:38:11;6.97;;;4.65;;
62861;SDS011;48953;53.110;5.592;2023-07-22T10:40:50;9.95;;;5.05;;
62861;SDS011;48953;53.110;5.592;2023-07-22T10:43:16;8.17;;;6.07;;
62861;SDS011;48953;53.110;5.592;2023-07-22T10:45:43;6.13;;;5.53;;
62861;SDS011;48953;53.110;5.592;2023-07-22T10:48:10;6.72;;;5.40;;
62861;SDS011;48953;53.110;5.592;2023-07-22T10:50:41;9.35;;;5.65;;
62861;SDS011;48953;53.110;5.592;2023-07-22T10:53:49;7.45;;;5.82;;
62861;SDS011;48953;53.110;5.592;2023-07-22T10:56:12;9.17;;;5.97;;
62861;SDS011;48953;53.110;5.592;2023-07-22T11:01:24;21.88;;;11.38;;
62861;SDS011;48953;53.110;5.592;2023-07-22T11:07:00;13.82;;;9.02;;
62861;SDS011;48953;53.110;5.592;2023-07-22T11:14:26;16.08;;;8.75;;
62861;SDS011;48953;53.110;5.592;2023-07-22T11:16:53;8.27;;;6.65;;
62861;SDS011;48953;53.110;5.592;2023-07-22T11:19:21;9.20;;;5.70;;
62861;SDS011;48953;53.110;5.592;2023-07-22T11:21:49;8.52;;;5.40;;
62861;SDS011;48953;53.110;5.592;2023-07-22T11:24:15;5.60;;;4.25;;
62861;SDS011;48953;53.110;5.592;2023-07-22T11:26:42;6.55;;;4.07;;
62861;SDS011;48953;53.110;5.592;2023-07-22T11:29:08;6.70;;;4.50;;
62861;SDS011;48953;53.110;5.592;2023-07-22T11:31:35;7.90;;;4.57;;
62861;SDS011;48953;53.110;5.592;2023-07-22T11:34:02;6.07;;;4.45;;
62861;SDS011;48953;53.110;5.592;2023-07-22T11:36:28;6.45;;;4.80;;
62861;SDS011;48953;53.110;5.592;2023-07-22T11:39:01;5.93;;;4.57;;
62861;SDS011;48953;53.110;5.592;2023-07-22T11:41:27;7.57;;;5.35;;
62861;SDS011;48953;53.110;5.592;2023-07-22T11:43:53;7.32;;;5.05;;
62861;SDS011;48953;53.110;5.592;2023-07-22T11:46:19;6.50;;;4.80;;
62861;SDS011;48953;53.110;5.592;2023-07-22T11:48:54;8.48;;;4.95;;
62861;SDS011;48953;53.110;5.592;2023-07-22T11:51:24;9.02;;;4.43;;
62861;SDS011;48953;53.110;5.592;2023-07-22T11:53:51;13.02;;;4.95;;
62861;SDS011;48953;53.110;5.592;2023-07-22T11:56:18;5.68;;;4.28;;
62861;SDS011;48953;53.110;5.592;2023-07-22T11:58:48;6.68;;;4.70;;
62861;SDS011;48953;53.110;5.592;2023-07-22T12:03:41;6.18;;;3.90;;
62861;SDS011;48953;53.110;5.592;2023-07-22T12:06:07;6.35;;;4.07;;
62861;SDS011;48953;53.110;5.592;2023-07-22T12:08:33;5.13;;;4.03;;
62861;SDS011;48953;53.110;5.592;2023-07-22T12:11:01;21.63;;;4.32;;
62861;SDS011;48953;53.110;5.592;2023-07-22T12:13:36;7.13;;;4.47;;
62861;SDS011;48953;53.110;5.592;2023-07-22T12:16:03;7.38;;;4.30;;
62861;SDS011;48953;53.110;5.592;2023-07-22T12:18:46;7.60;;;3.92;;
62861;SDS011;48953;53.110;5.592;2023-07-22T12:21:12;7.22;;;4.47;;
62861;SDS011;48953;53.110;5.592;2023-07-22T12:23:46;5.65;;;3.47;;
62861;SDS011;48953;53.110;5.592;2023-07-22T12:26:12;6.60;;;3.42;;
62861;SDS011;48953;53.110;5.592;2023-07-22T12:28:39;6.40;;;3.58;;
62861;SDS011;48953;53.110;5.592;2023-07-22T12:31:05;4.38;;;3.10;;
62861;SDS011;48953;53.110;5.592;2023-07-22T12:33:31;4.88;;;3.42;;
62861;SDS011;48953;53.110;5.592;2023-07-22T12:35:57;5.88;;;3.13;;
62861;SDS011;48953;53.110;5.592;2023-07-22T12:38:23;4.57;;;3.35;;
62861;SDS011;48953;53.110;5.592;2023-07-22T12:40:50;6.53;;;3.20;;
62861;SDS011;48953;53.110;5.592;2023-07-22T12:43:16;6.30;;;3.38;;
62861;SDS011;48953;53.110;5.592;2023-07-22T12:45:42;5.30;;;2.92;;
62861;SDS011;48953;53.110;5.592;2023-07-22T12:48:09;4.43;;;2.38;;
62861;SDS011;48953;53.110;5.592;2023-07-22T12:50:35;6.68;;;2.45;;
62861;SDS011;48953;53.110;5.592;2023-07-22T12:53:01;5.75;;;2.63;;
62861;SDS011;48953;53.110;5.592;2023-07-22T12:55:28;4.70;;;2.92;;
62861;SDS011;48953;53.110;5.592;2023-07-22T12:57:54;7.35;;;3.15;;
62861;SDS011;48953;53.110;5.592;2023-07-22T13:00:23;6.38;;;3.13;;
62861;SDS011;48953;53.110;5.592;2023-07-22T13:02:49;5.68;;;3.05;;
62861;SDS011;48953;53.110;5.592;2023-07-22T13:05:15;7.40;;;3.35;;
62861;SDS011;48953;53.110;5.592;2023-07-22T13:07:41;7.82;;;3.28;;
62861;SDS011;48953;53.110;5.592;2023-07-22T13:10:07;9.18;;;3.67;;
62861;SDS011;48953;53.110;5.592;2023-07-22T13:12:36;6.45;;;3.72;;
62861;SDS011;48953;53.110;5.592;2023-07-22T13:15:02;8.32;;;3.80;;
62861;SDS011;48953;53.110;5.592;2023-07-22T13:17:28;5.63;;;2.85;;
62861;SDS011;48953;53.110;5.592;2023-07-22T13:19:54;6.00;;;3.42;;
62861;SDS011;48953;53.110;5.592;2023-07-22T13:22:20;8.70;;;3.60;;
62861;SDS011;48953;53.110;5.592;2023-07-22T13:24:46;6.47;;;2.97;;
62861;SDS011;48953;53.110;5.592;2023-07-22T13:27:12;6.50;;;3.60;;
62861;SDS011;48953;53.110;5.592;2023-07-22T13:29:38;6.90;;;3.95;;
62861;SDS011;48953;53.110;5.592;2023-07-22T13:32:04;4.72;;;3.20;;
62861;SDS011;48953;53.110;5.592;2023-07-22T13:34:31;5.93;;;3.75;;
62861;SDS011;48953;53.110;5.592;2023-07-22T13:36:57;5.47;;;3.53;;
62861;SDS011;48953;53.110;5.592;2023-07-22T13:39:23;8.25;;;3.80;;
62861;SDS011;48953;53.110;5.592;2023-07-22T13:41:49;5.72;;;3.38;;
62861;SDS011;48953;53.110;5.592;2023-07-22T13:44:15;5.43;;;3.50;;
62861;SDS011;48953;53.110;5.592;2023-07-22T13:46:42;6.85;;;3.78;;
62861;SDS011;48953;53.110;5.592;2023-07-22T13:49:08;4.82;;;3.25;;
62861;SDS011;48953;53.110;5.592;2023-07-22T13:51:34;6.53;;;3.50;;
62861;SDS011;48953;53.110;5.592;2023-07-22T13:54:00;5.30;;;3.38;;
62861;SDS011;48953;53.110;5.592;2023-07-22T13:56:26;6.55;;;3.35;;
62861;SDS011;48953;53.110;5.592;2023-07-22T13:58:53;8.13;;;3.42;;
62861;SDS011;48953;53.110;5.592;2023-07-22T14:01:24;6.22;;;2.97;;
62861;SDS011;48953;53.110;5.592;2023-07-22T14:03:50;6.72;;;3.25;;
62861;SDS011;48953;53.110;5.592;2023-07-22T14:06:16;4.55;;;3.55;;
62861;SDS011;48953;53.110;5.592;2023-07-22T14:08:42;4.85;;;3.55;;
62861;SDS011;48953;53.110;5.592;2023-07-22T14:11:08;5.28;;;3.63;;
62861;SDS011;48953;53.110;5.592;2023-07-22T14:13:34;7.05;;;3.90;;
62861;SDS011;48953;53.110;5.592;2023-07-22T14:16:01;6.35;;;3.35;;
62861;SDS011;48953;53.110;5.592;2023-07-22T14:18:27;5.65;;;3.00;;
62861;SDS011;48953;53.110;5.592;2023-07-22T14:20:53;6.20;;;3.28;;
62861;SDS011;48953;53.110;5.592;2023-07-22T14:23:19;4.07;;;2.53;;
62861;SDS011;48953;53.110;5.592;2023-07-22T14:25:45;4.55;;;2.53;;
62861;SDS011;48953;53.110;5.592;2023-07-22T14:28:11;4.57;;;2.80;;
62861;SDS011;48953;53.110;5.592;2023-07-22T14:30:37;5.57;;;2.90;;
62861;SDS011;48953;53.110;5.592;2023-07-22T14:33:03;4.20;;;2.38;;
62861;SDS011;48953;53.110;5.592;2023-07-22T14:35:29;7.13;;;2.70;;
62861;SDS011;48953;53.110;5.592;2023-07-22T14:37:57;3.28;;;2.40;;
62861;SDS011;48953;53.110;5.592;2023-07-22T14:40:25;7.13;;;2.90;;
62861;SDS011;48953;53.110;5.592;2023-07-22T14:42:50;4.40;;;2.60;;
62861;SDS011;48953;53.110;5.592;2023-07-22T14:45:17;3.58;;;2.50;;
62861;SDS011;48953;53.110;5.592;2023-07-22T14:47:43;3.65;;;2.78;;
62861;SDS011;48953;53.110;5.592;2023-07-22T14:50:09;5.55;;;3.03;;
62861;SDS011;48953;53.110;5.592;2023-07-22T14:52:35;3.67;;;2.50;;
62861;SDS011;48953;53.110;5.592;2023-07-22T14:55:01;5.15;;;2.53;;
62861;SDS011;48953;53.110;5.592;2023-07-22T14:57:27;5.57;;;2.72;;
62861;SDS011;48953;53.110;5.592;2023-07-22T14:59:55;5.20;;;2.45;;
62861;SDS011;48953;53.110;5.592;2023-07-22T15:02:22;4.10;;;2.85;;
62861;SDS011;48953;53.110;5.592;2023-07-22T15:04:48;5.30;;;2.70;;